createdAt,value
2019-01-30T00:02:14.483Z,7.83
2019-01-30T00:07:06.977Z,7.60
2019-01-30T00:11:59.249Z,8.63
2019-01-30T00:16:51.621Z,8.70
2019-01-30T00:21:44.351Z,7.43
2019-01-30T00:26:37.072Z,5.97
2019-01-30T00:31:29.405Z,8.67
2019-01-30T00:36:22.114Z,8.37
2019-01-30T00:41:14.868Z,6.53
2019-01-30T00:46:07.308Z,6.10
2019-01-30T00:50:59.680Z,7.07
2019-01-30T00:55:52.257Z,7.00
2019-01-30T01:00:45.237Z,8.03
2019-01-30T01:05:37.561Z,8.50
2019-01-30T01:10:29.966Z,6.37
2019-01-30T01:15:22.591Z,6.80
2019-01-30T01:20:20.245Z,5.53
2019-01-30T01:25:15.188Z,6.50
2019-01-30T01:30:10.915Z,8.37
2019-01-30T01:35:03.221Z,6.17
2019-01-30T01:39:55.836Z,7.70
2019-01-30T01:44:48.200Z,8.00
2019-01-30T01:49:40.928Z,7.87
2019-01-30T01:54:33.376Z,7.60
2019-01-30T01:59:25.691Z,5.73
2019-01-30T02:04:18.148Z,5.13
2019-01-30T02:09:10.650Z,7.90
2019-01-30T02:14:03.326Z,6.67
2019-01-30T02:18:55.670Z,6.30
2019-01-30T02:23:48.061Z,6.57
2019-01-30T02:28:40.288Z,6.50
2019-01-30T02:33:32.841Z,6.73
2019-01-30T02:38:25.320Z,6.47
2019-01-30T02:43:17.477Z,6.50
2019-01-30T02:48:09.843Z,7.37
2019-01-30T02:53:02.288Z,7.17
2019-01-30T02:57:54.762Z,7.50
2019-01-30T03:02:47.430Z,6.87
2019-01-30T03:07:39.850Z,8.50
2019-01-30T03:12:32.337Z,6.63
2019-01-30T03:17:25.010Z,6.57
2019-01-30T03:22:17.372Z,6.47
2019-01-30T03:27:09.818Z,7.90
2019-01-30T03:32:02.454Z,7.70
2019-01-30T03:36:54.720Z,7.50
2019-01-30T03:41:47.322Z,7.83
2019-01-30T03:46:39.804Z,8.37
2019-01-30T03:51:32.380Z,7.03
2019-01-30T03:56:24.948Z,5.37
2019-01-30T04:01:26.426Z,8.03
2019-01-30T04:06:11.349Z,13.93
2019-01-30T04:11:04.236Z,5.83
2019-01-30T04:15:56.587Z,4.80
2019-01-30T04:20:49.039Z,5.13
2019-01-30T04:25:41.529Z,4.80
2019-01-30T04:30:34.057Z,5.37
2019-01-30T04:35:26.664Z,6.60
2019-01-30T04:40:20.824Z,5.87
2019-01-30T04:45:18.888Z,6.27
2019-01-30T04:50:11.696Z,7.83
2019-01-30T04:55:06.133Z,6.07
2019-01-30T04:59:58.305Z,5.77
2019-01-30T05:04:51.117Z,6.20
2019-01-30T05:09:43.733Z,6.87
2019-01-30T05:14:36.490Z,5.73
2019-01-30T05:19:29.452Z,6.53
2019-01-30T05:24:21.929Z,7.10
2019-01-30T05:29:14.637Z,7.13
2019-01-30T05:34:06.968Z,8.00
2019-01-30T05:38:59.456Z,7.67
2019-01-30T05:43:52.140Z,9.40
2019-01-30T05:48:44.745Z,8.50
2019-01-30T05:53:37.225Z,9.60
2019-01-30T05:58:29.813Z,8.60
2019-01-30T06:03:22.340Z,11.30
2019-01-30T06:08:14.790Z,9.63
2019-01-30T06:13:07.260Z,8.87
2019-01-30T06:17:59.831Z,10.93
2019-01-30T06:22:52.997Z,9.20
2019-01-30T06:27:45.520Z,10.60
2019-01-30T06:32:37.854Z,10.30
2019-01-30T06:37:30.602Z,11.57
2019-01-30T06:42:23.416Z,11.40
2019-01-30T06:47:15.913Z,11.43
2019-01-30T06:52:08.536Z,16.43
2019-01-30T06:57:00.869Z,16.80
2019-01-30T07:02:12.937Z,16.33
2019-01-30T07:07:05.717Z,13.87
2019-01-30T07:11:58.245Z,13.33
2019-01-30T07:16:50.574Z,13.97
2019-01-30T07:21:43.200Z,14.10
2019-01-30T07:26:35.659Z,15.30
2019-01-30T07:31:28.094Z,18.17
2019-01-30T07:36:20.819Z,18.00
2019-01-30T07:41:13.616Z,17.43
2019-01-30T07:46:06.268Z,16.70
2019-01-30T07:50:58.925Z,17.83
2019-01-30T07:55:51.237Z,16.57
2019-01-30T08:00:43.664Z,17.70
2019-01-30T08:05:36.503Z,18.23
2019-01-30T08:10:29.058Z,15.10
2019-01-30T08:15:24.058Z,13.10
2019-01-30T08:20:18.263Z,9.63
2019-01-30T08:25:16.424Z,9.13
2019-01-30T08:30:22.053Z,8.70
2019-01-30T08:35:08.614Z,6.53
2019-01-30T08:40:00.910Z,8.00
2019-01-30T08:44:53.376Z,7.90
2019-01-30T08:49:45.992Z,7.57
2019-01-30T08:54:38.682Z,6.00
2019-01-30T08:59:31.408Z,6.67
2019-01-30T09:04:23.989Z,4.20
2019-01-30T09:09:16.808Z,4.83
2019-01-30T09:14:09.249Z,4.87
2019-01-30T09:19:02.598Z,5.23
2019-01-30T09:23:55.361Z,8.00
2019-01-30T09:28:48.169Z,4.40
2019-01-30T09:33:40.800Z,4.27
2019-01-30T09:38:33.477Z,7.57
2019-01-30T09:43:25.890Z,3.37
2019-01-30T09:48:18.606Z,9.20
2019-01-30T09:53:11.211Z,4.70
2019-01-30T09:58:03.610Z,12.63
2019-01-30T10:02:56.001Z,9.93
2019-01-30T10:07:48.757Z,6.47
2019-01-30T10:12:41.201Z,9.60
2019-01-30T10:17:33.908Z,8.97
2019-01-30T10:22:26.683Z,6.07
2019-01-30T10:27:19.386Z,3.83
2019-01-30T10:32:11.729Z,2.47
2019-01-30T10:37:04.549Z,4.00
2019-01-30T10:41:57.109Z,10.97
2019-01-30T10:46:49.464Z,3.63
2019-01-30T10:51:41.720Z,4.80
2019-01-30T10:56:34.429Z,6.10
2019-01-30T11:01:27.214Z,6.77
2019-01-30T11:06:19.533Z,6.40
2019-01-30T11:11:12.333Z,7.70
2019-01-30T11:16:05.107Z,7.17
2019-01-30T11:20:57.523Z,9.23
2019-01-30T11:25:50.464Z,8.77
2019-01-30T11:30:42.983Z,7.07
2019-01-30T11:35:35.722Z,7.57
2019-01-30T11:40:28.369Z,5.70
2019-01-30T11:45:38.489Z,5.83
2019-01-30T11:50:31.281Z,7.37
2019-01-30T11:55:24.137Z,5.40
2019-01-30T12:00:26.518Z,5.50
2019-01-30T12:05:19.632Z,5.43
2019-01-30T12:10:15.838Z,3.97
2019-01-30T12:15:19.927Z,3.50
2019-01-30T12:20:13.577Z,5.93
2019-01-30T12:25:09.225Z,3.53
2019-01-30T12:30:01.913Z,3.70
2019-01-30T12:34:54.437Z,3.83
2019-01-30T12:39:46.761Z,4.37
2019-01-30T12:44:39.448Z,4.70
2019-01-30T12:49:32.014Z,6.73
2019-01-30T12:54:24.538Z,5.87
2019-01-30T12:59:16.934Z,7.50
2019-01-30T13:04:09.773Z,13.47
2019-01-30T13:09:02.429Z,7.77
2019-01-30T13:13:55.045Z,7.30
2019-01-30T13:18:47.546Z,7.70
2019-01-30T13:23:40.429Z,8.43
2019-01-30T13:28:33.036Z,9.33
2019-01-30T13:33:25.782Z,8.43
2019-01-30T13:38:18.234Z,7.00
2019-01-30T13:43:10.938Z,7.53
2019-01-30T13:48:04.149Z,7.60
2019-01-30T13:52:57.012Z,7.87
2019-01-30T13:57:49.589Z,25.93
2019-01-30T14:02:42.469Z,10.60
2019-01-30T14:07:34.934Z,21.03
2019-01-30T14:12:27.644Z,8.27
2019-01-30T14:17:20.204Z,12.57
2019-01-30T14:22:12.403Z,6.77
2019-01-30T14:27:04.737Z,7.37
2019-01-30T14:31:57.394Z,19.63
2019-01-30T14:36:50.039Z,11.83
2019-01-30T14:41:42.610Z,11.50
2019-01-30T14:46:35.203Z,13.27
2019-01-30T14:51:27.690Z,10.57
2019-01-30T14:56:20.616Z,13.77
2019-01-30T15:01:12.916Z,16.10
2019-01-30T15:06:05.651Z,14.57
2019-01-30T15:10:58.191Z,15.77
2019-01-30T15:15:50.480Z,11.77
2019-01-30T15:20:42.950Z,11.40
2019-01-30T15:25:35.556Z,13.17
2019-01-30T15:30:33.480Z,12.40
2019-01-30T15:35:33.268Z,11.60
2019-01-30T15:40:23.160Z,13.43
2019-01-30T15:45:19.056Z,16.80
2019-01-30T15:50:14.378Z,12.90
2019-01-30T15:55:09.888Z,14.57
2019-01-30T16:00:02.079Z,11.83
2019-01-30T16:04:54.727Z,13.13
2019-01-30T16:09:47.598Z,11.83
2019-01-30T16:14:40.278Z,13.50
2019-01-30T16:19:32.974Z,13.20
2019-01-30T16:24:25.354Z,12.07
2019-01-30T16:29:18.025Z,12.17
2019-01-30T16:34:10.544Z,8.40
2019-01-30T16:39:04.636Z,17.20
2019-01-30T16:43:57.057Z,9.50
2019-01-30T16:48:49.649Z,16.37
2019-01-30T16:53:42.110Z,19.73
2019-01-30T16:58:34.929Z,6.73
2019-01-30T17:03:27.484Z,9.17
2019-01-30T17:08:20.159Z,7.50
2019-01-30T17:13:12.909Z,9.37
2019-01-30T17:18:06.613Z,9.67
2019-01-30T17:22:59.129Z,8.70
2019-01-30T17:27:51.257Z,12.07
2019-01-30T17:32:43.809Z,8.50
2019-01-30T17:37:36.436Z,9.43
2019-01-30T17:42:30.334Z,9.73
2019-01-30T17:47:23.932Z,10.83
2019-01-30T17:52:16.373Z,10.27
2019-01-30T17:57:08.765Z,9.60
2019-01-30T18:02:01.442Z,11.90
2019-01-30T18:06:53.969Z,19.77
2019-01-30T18:11:46.484Z,12.17
2019-01-30T18:16:39.089Z,11.60
2019-01-30T18:21:32.226Z,9.50
2019-01-30T18:26:24.921Z,17.83
2019-01-30T18:31:17.474Z,13.23
2019-01-30T18:36:10.170Z,15.10
2019-01-30T18:41:02.468Z,11.80
2019-01-30T18:45:55.088Z,11.77
2019-01-30T18:50:47.513Z,19.50
2019-01-30T18:55:40.528Z,16.77
2019-01-30T19:00:38.485Z,16.93
2019-01-30T19:05:32.229Z,16.47
2019-01-30T19:10:24.729Z,19.53
2019-01-30T19:15:23.186Z,24.80
2019-01-30T19:20:21.765Z,18.80
2019-01-30T19:25:15.113Z,20.67
2019-01-30T19:30:10.381Z,20.90
2019-01-30T19:35:03.153Z,19.07
2019-01-30T19:39:55.760Z,20.13
2019-01-30T19:44:48.309Z,15.77
2019-01-30T19:49:41.013Z,26.50
2019-01-30T19:54:34.205Z,27.47
2019-01-30T19:59:27.144Z,41.10
2019-01-30T20:04:19.502Z,39.20
2019-01-30T20:09:13.797Z,26.37
2019-01-30T20:14:06.141Z,29.30
2019-01-30T20:18:58.929Z,41.57
2019-01-30T20:23:51.594Z,59.33
2019-01-30T20:28:44.058Z,50.03
2019-01-30T20:33:36.915Z,28.20
2019-01-30T20:38:29.280Z,24.47
2019-01-30T20:43:21.812Z,23.37
2019-01-30T20:48:14.333Z,18.43
2019-01-30T20:53:07.348Z,11.30
2019-01-30T20:58:00.555Z,19.83
2019-01-30T21:02:53.545Z,12.73
2019-01-30T21:07:46.152Z,15.57
2019-01-30T21:12:38.801Z,18.57
2019-01-30T21:17:31.065Z,17.73
2019-01-30T21:22:23.825Z,18.43
2019-01-30T21:27:16.201Z,21.77
2019-01-30T21:32:08.944Z,23.87
2019-01-30T21:37:01.350Z,21.43
2019-01-30T21:41:53.828Z,19.90
2019-01-30T21:46:46.561Z,21.10
2019-01-30T21:51:38.989Z,19.40
2019-01-30T21:56:33.784Z,25.33
2019-01-30T22:01:26.450Z,23.47
2019-01-30T22:06:19.360Z,18.90
2019-01-30T22:11:11.521Z,20.57
2019-01-30T22:16:05.094Z,27.57
2019-01-30T22:20:57.361Z,24.50
2019-01-30T22:25:49.942Z,21.47
2019-01-30T22:30:42.501Z,18.37
2019-01-30T22:35:35.000Z,17.67
2019-01-30T22:40:27.521Z,15.10
2019-01-30T22:45:21.508Z,20.00
2019-01-30T22:50:16.059Z,18.20
2019-01-30T22:55:11.681Z,18.07
2019-01-30T23:00:07.564Z,14.87
2019-01-30T23:05:17.700Z,17.83
2019-01-30T23:10:22.008Z,14.23
2019-01-30T23:15:29.269Z,13.10
2019-01-30T23:20:22.774Z,17.57
2019-01-30T23:25:26.940Z,17.63
2019-01-30T23:30:45.045Z,15.57
2019-01-30T23:35:40.583Z,14.80
2019-01-30T23:40:45.060Z,17.43
2019-01-30T23:45:46.709Z,16.17
2019-01-30T23:50:50.889Z,19.43
2019-01-30T23:55:58.169Z,15.07
